Time;durP1;ratioP1;P1;durP2;ratioP2;P2;SDS_P1;SDS_P2;PMS_P1;PMS_P2;Temp;Humidity;BMP_temperature;BMP_pressure;BME280_temperature;BME280_humidity;BME280_pressure;Samples;Min_cycle;Max_cycle;Signal;HPM_P1;HPM_P2
2023/06/17 00:01:15;;;;;;;18.75;14.30;;;;;;;;;;5096781;28;20051;-63
2023/06/17 00:03:42;;;;;;;22.38;14.32;;;;;;;;;;5104841;28;20031;-63
2023/06/17 00:06:08;;;;;;;19.65;14.50;;;;;;;;;;5116940;28;20096;-64
2023/06/17 00:08:33;;;;;;;17.90;14.57;;;;;;;;;;5116718;28;20469;-64
2023/06/17 00:10:59;;;;;;;17.08;14.35;;;;;;;;;;5116793;28;20468;-64
2023/06/17 00:13:25;;;;;;;16.25;13.50;;;;;;;;;;5116776;28;20031;-64
2023/06/17 00:15:50;;;;;;;18.08;13.93;;;;;;;;;;5116735;28;20073;-63
2023/06/17 00:18:19;;;;;;;18.33;14.13;;;;;;;;;;5116787;28;20374;-65
2023/06/17 00:20:46;;;;;;;17.38;14.88;;;;;;;;;;5104302;28;20036;-63
2023/06/17 00:23:12;;;;;;;15.85;13.45;;;;;;;;;;5096048;28;20024;-64
2023/06/17 00:25:37;;;;;;;17.10;13.15;;;;;;;;;;5096373;28;20492;-63
2023/06/17 00:28:03;;;;;;;20.25;13.27;;;;;;;;;;5096225;28;20077;-65
2023/06/17 00:30:28;;;;;;;23.88;14.60;;;;;;;;;;5096170;28;20090;-64
2023/06/17 00:32:54;;;;;;;17.88;14.68;;;;;;;;;;5096220;28;20111;-64
2023/06/17 00:35:20;;;;;;;15.95;14.25;;;;;;;;;;5096160;28;20034;-64
2023/06/17 00:37:45;;;;;;;17.23;14.18;;;;;;;;;;5095812;28;20028;-64
2023/06/17 00:40:11;;;;;;;19.58;14.45;;;;;;;;;;5096299;28;20027;-64
2023/06/17 00:42:37;;;;;;;18.83;14.70;;;;;;;;;;5096049;28;20484;-64
2023/06/17 00:45:03;;;;;;;20.17;14.55;;;;;;;;;;5096050;28;20028;-64
2023/06/17 00:47:30;;;;;;;19.17;14.82;;;;;;;;;;5095946;28;20089;-64
2023/06/17 00:49:55;;;;;;;18.17;14.50;;;;;;;;;;5095763;28;21043;-64
2023/06/17 00:52:22;;;;;;;18.40;16.02;;;;;;;;;;5095630;28;20126;-64
2023/06/17 00:54:47;;;;;;;21.98;16.38;;;;;;;;;;5095860;28;20020;-64
2023/06/17 00:57:14;;;;;;;21.15;17.15;;;;;;;;;;5095182;28;20062;-64
2023/06/17 00:59:42;;;;;;;21.10;16.30;;;;;;;;;;5094531;28;20094;-64
2023/06/17 01:02:09;;;;;;;22.17;16.83;;;;;;;;;;5095784;28;20035;-64
2023/06/17 01:04:40;;;;;;;22.33;16.88;;;;;;;;;;5111559;28;20033;-64
2023/06/17 01:07:40;;;;;;;18.65;15.70;;;;;;;;;;5115674;28;20026;-64
2023/06/17 01:10:12;;;;;;;24.42;17.48;;;;;;;;;;5115897;28;20031;-64
2023/06/17 01:12:39;;;;;;;21.88;17.08;;;;;;;;;;5115860;28;20477;-64
2023/06/17 01:15:06;;;;;;;24.75;17.48;;;;;;;;;;5115729;28;20031;-64
2023/06/17 01:17:32;;;;;;;23.40;17.45;;;;;;;;;;5115829;28;20024;-64
2023/06/17 01:19:58;;;;;;;22.40;17.17;;;;;;;;;;5109839;28;20028;-64
2023/06/17 01:22:25;;;;;;;24.25;16.90;;;;;;;;;;5095019;28;20381;-64
2023/06/17 01:24:51;;;;;;;20.55;16.77;;;;;;;;;;5095204;28;20085;-64
2023/06/17 01:27:17;;;;;;;20.33;16.52;;;;;;;;;;5094993;28;20028;-64
2023/06/17 01:29:46;;;;;;;23.75;17.10;;;;;;;;;;5094966;28;20035;-64
2023/06/17 01:32:12;;;;;;;19.83;16.83;;;;;;;;;;5095088;28;20028;-64
2023/06/17 01:34:59;;;;;;;21.23;16.38;;;;;;;;;;5095018;28;20358;-64
2023/06/17 01:37:34;;;;;;;24.02;17.77;;;;;;;;;;5094988;28;20060;-64
2023/06/17 01:40:02;;;;;;;24.88;17.77;;;;;;;;;;5094962;28;20031;-64
2023/06/17 01:42:35;;;;;;;22.10;16.52;;;;;;;;;;5094779;28;20024;-64
2023/06/17 01:45:03;;;;;;;19.45;16.75;;;;;;;;;;5094763;28;20028;-64
2023/06/17 01:47:29;;;;;;;20.50;16.67;;;;;;;;;;5094724;28;20052;-64
2023/06/17 01:49:59;;;;;;;21.88;16.90;;;;;;;;;;5094430;28;20071;-64
2023/06/17 01:52:26;;;;;;;22.88;19.08;;;;;;;;;;5094644;28;20039;-64
2023/06/17 01:54:52;;;;;;;24.63;19.13;;;;;;;;;;5094624;28;20026;-64
2023/06/17 01:57:18;;;;;;;29.77;21.35;;;;;;;;;;5094657;28;20036;-64
2023/06/17 01:59:43;;;;;;;31.15;23.50;;;;;;;;;;5094433;28;20023;-64
2023/06/17 02:02:09;;;;;;;35.70;22.60;;;;;;;;;;5094427;28;20105;-64
2023/06/17 02:04:34;;;;;;;38.08;26.83;;;;;;;;;;5109871;28;20019;-64
2023/06/17 02:07:00;;;;;;;42.85;27.75;;;;;;;;;;5114705;28;20016;-64
2023/06/17 02:09:25;;;;;;;48.00;28.17;;;;;;;;;;5113814;28;20408;-63
2023/06/17 02:11:51;;;;;;;56.30;28.92;;;;;;;;;;5114611;28;20029;-64
2023/06/17 02:14:16;;;;;;;60.53;30.10;;;;;;;;;;5114427;28;20384;-64
2023/06/17 02:16:48;;;;;;;66.82;30.95;;;;;;;;;;5114413;28;20027;-63
2023/06/17 02:19:15;;;;;;;74.47;32.78;;;;;;;;;;5114211;28;20043;-64
2023/06/17 02:21:43;;;;;;;107.60;36.78;;;;;;;;;;5093916;28;20036;-64
2023/06/17 02:24:10;;;;;;;131.00;38.53;;;;;;;;;;5093972;28;20028;-64
2023/06/17 02:26:35;;;;;;;144.13;41.85;;;;;;;;;;5093879;28;20063;-64
2023/06/17 02:29:00;;;;;;;159.73;45.03;;;;;;;;;;5093830;28;20028;-64
2023/06/17 02:31:27;;;;;;;152.43;43.67;;;;;;;;;;5093888;28;20031;-64
2023/06/17 02:33:53;;;;;;;150.52;43.47;;;;;;;;;;5093495;28;20032;-64
2023/06/17 02:36:19;;;;;;;145.75;42.35;;;;;;;;;;5093952;28;20020;-64
2023/06/17 02:38:44;;;;;;;145.38;43.03;;;;;;;;;;5093726;28;20367;-64
2023/06/17 02:41:10;;;;;;;124.07;38.95;;;;;;;;;;5093857;28;20035;-65
2023/06/17 02:43:35;;;;;;;134.63;40.28;;;;;;;;;;5093665;28;20059;-64
2023/06/17 02:46:01;;;;;;;132.40;38.65;;;;;;;;;;5093683;28;20385;-64
2023/06/17 02:48:26;;;;;;;127.45;37.85;;;;;;;;;;5093249;28;20378;-64
2023/06/17 02:50:53;;;;;;;121.25;37.15;;;;;;;;;;5093194;28;20028;-64
2023/06/17 02:53:19;;;;;;;105.25;34.28;;;;;;;;;;5093370;28;20127;-63
2023/06/17 02:55:45;;;;;;;79.57;30.90;;;;;;;;;;5093470;28;20114;-64
2023/06/17 02:58:14;;;;;;;58.17;27.48;;;;;;;;;;5093382;28;20355;-64
2023/06/17 03:00:40;;;;;;;67.85;29.52;;;;;;;;;;5093447;28;20020;-64
2023/06/17 03:03:06;;;;;;;59.97;28.00;;;;;;;;;;5096484;28;20022;-64
2023/06/17 03:05:32;;;;;;;63.22;27.63;;;;;;;;;;5113459;28;20027;-64
2023/06/17 03:07:58;;;;;;;61.00;26.42;;;;;;;;;;5113741;28;20401;-64
2023/06/17 03:10:23;;;;;;;61.72;26.60;;;;;;;;;;5113383;28;20035;-63
2023/06/17 03:12:49;;;;;;;68.05;27.23;;;;;;;;;;5113383;28;20073;-64
2023/06/17 03:15:17;;;;;;;76.75;26.98;;;;;;;;;;5113421;28;20035;-64
2023/06/17 03:17:43;;;;;;;57.97;25.42;;;;;;;;;;5113032;28;20032;-65
2023/06/17 03:20:09;;;;;;;68.40;27.08;;;;;;;;;;5105641;28;20056;-64
2023/06/17 03:22:34;;;;;;;68.38;27.00;;;;;;;;;;5092835;28;20062;-64
2023/06/17 03:25:00;;;;;;;78.63;27.27;;;;;;;;;;5092888;28;20070;-64
2023/06/17 03:27:27;;;;;;;95.75;29.65;;;;;;;;;;5092738;28;20043;-64
2023/06/17 03:29:53;;;;;;;84.72;29.95;;;;;;;;;;5092668;28;20059;-63
2023/06/17 03:32:18;;;;;;;94.20;29.38;;;;;;;;;;5092545;28;20059;-65
2023/06/17 03:34:43;;;;;;;74.32;29.33;;;;;;;;;;5092894;28;20047;-63
2023/06/17 03:37:10;;;;;;;60.97;26.35;;;;;;;;;;5092689;28;20031;-63
2023/06/17 03:39:36;;;;;;;60.10;26.75;;;;;;;;;;5092916;28;20524;-64
2023/06/17 03:42:01;;;;;;;63.10;26.30;;;;;;;;;;5092689;28;20063;-63
2023/06/17 03:44:26;;;;;;;63.33;25.77;;;;;;;;;;5092737;28;20128;-64
2023/06/17 03:46:52;;;;;;;55.13;24.58;;;;;;;;;;5092513;28;20028;-64
2023/06/17 03:49:17;;;;;;;56.13;26.45;;;;;;;;;;5092639;28;20397;-64
2023/06/17 03:51:43;;;;;;;62.45;32.83;;;;;;;;;;5092700;28;20016;-63
2023/06/17 03:54:08;;;;;;;68.43;34.35;;;;;;;;;;5092792;28;20503;-64
2023/06/17 03:56:34;;;;;;;78.97;35.25;;;;;;;;;;5092622;28;20461;-64
2023/06/17 03:58:59;;;;;;;77.32;35.03;;;;;;;;;;5092598;28;20024;-63
2023/06/17 04:01:24;;;;;;;78.03;35.42;;;;;;;;;;5092381;28;20036;-64
2023/06/17 04:03:51;;;;;;;72.35;33.95;;;;;;;;;;5102142;28;20024;-64
2023/06/17 04:06:16;;;;;;;57.72;28.80;;;;;;;;;;5112804;28;20086;-64
2023/06/17 04:08:43;;;;;;;55.10;27.52;;;;;;;;;;5112920;28;20053;-64
2023/06/17 04:11:08;;;;;;;50.85;25.45;;;;;;;;;;5112726;28;20031;-63
2023/06/17 04:13:34;;;;;;;47.53;25.02;;;;;;;;;;5112857;28;20461;-64
2023/06/17 04:16:00;;;;;;;56.28;27.95;;;;;;;;;;5112558;28;20672;-64
2023/06/17 04:18:27;;;;;;;72.30;31.13;;;;;;;;;;5112726;28;20055;-63
2023/06/17 04:20:56;;;;;;;79.75;29.80;;;;;;;;;;5098014;28;20028;-65
2023/06/17 04:23:23;;;;;;;90.10;29.02;;;;;;;;;;5092459;28;20534;-63
2023/06/17 04:25:50;;;;;;;61.80;26.95;;;;;;;;;;5092314;28;20519;-64
2023/06/17 04:28:17;;;;;;;62.65;26.75;;;;;;;;;;5092006;28;20024;-64
2023/06/17 04:30:45;;;;;;;58.38;27.13;;;;;;;;;;5092116;28;20326;-64
2023/06/17 04:33:14;;;;;;;51.78;25.60;;;;;;;;;;5095139;28;20031;-64
2023/06/17 04:35:42;;;;;;;68.53;26.83;;;;;;;;;;5096144;28;20372;-64
2023/06/17 04:38:11;;;;;;;73.00;28.95;;;;;;;;;;5096053;28;20024;-65
2023/06/17 04:40:37;;;;;;;73.43;29.35;;;;;;;;;;5096066;28;20032;-64
2023/06/17 04:43:03;;;;;;;71.80;30.35;;;;;;;;;;5096007;28;20024;-64
2023/06/17 04:45:29;;;;;;;82.18;31.05;;;;;;;;;;5095726;28;20107;-64
2023/06/17 04:47:55;;;;;;;90.90;32.50;;;;;;;;;;5095377;28;20078;-64
2023/06/17 04:50:20;;;;;;;90.05;33.40;;;;;;;;;;5095722;28;20024;-64
2023/06/17 04:52:51;;;;;;;90.65;32.97;;;;;;;;;;5095630;28;20457;-64
2023/06/17 04:55:18;;;;;;;87.32;31.83;;;;;;;;;;5095780;28;20031;-64
2023/06/17 04:57:46;;;;;;;87.47;32.25;;;;;;;;;;5095703;28;20027;-64
2023/06/17 05:00:13;;;;;;;86.75;32.83;;;;;;;;;;5095654;28;20016;-64
2023/06/17 05:02:39;;;;;;;87.35;31.45;;;;;;;;;;5095666;28;20067;-64
2023/06/17 05:05:06;;;;;;;91.55;33.15;;;;;;;;;;5115798;28;20069;-64
2023/06/17 05:07:35;;;;;;;88.53;31.65;;;;;;;;;;5116052;28;20038;-64
2023/06/17 05:10:02;;;;;;;86.72;29.45;;;;;;;;;;5115830;28;20512;-64
2023/06/17 05:12:27;;;;;;;83.13;30.27;;;;;;;;;;5115569;28;20503;-64
2023/06/17 05:14:53;;;;;;;96.38;31.90;;;;;;;;;;5115774;28;20024;-64
2023/06/17 05:17:18;;;;;;;90.40;33.75;;;;;;;;;;5115473;28;20032;-64
2023/06/17 05:19:44;;;;;;;103.97;33.00;;;;;;;;;;5111735;28;20027;-64
2023/06/17 05:22:09;;;;;;;114.25;34.38;;;;;;;;;;5095108;28;20020;-64
2023/06/17 05:24:35;;;;;;;104.63;34.78;;;;;;;;;;5095281;28;20073;-64
2023/06/17 05:27:00;;;;;;;108.13;33.53;;;;;;;;;;5095000;28;20106;-64
2023/06/17 05:29:26;;;;;;;93.80;31.67;;;;;;;;;;5095066;28;20103;-64
2023/06/17 05:31:51;;;;;;;80.10;30.20;;;;;;;;;;5095132;28;20035;-64
2023/06/17 05:34:17;;;;;;;95.50;31.30;;;;;;;;;;5094915;28;20012;-64
2023/06/17 05:36:42;;;;;;;98.57;31.02;;;;;;;;;;5095076;28;20122;-64
2023/06/17 05:39:08;;;;;;;93.65;30.15;;;;;;;;;;5095049;28;20428;-64
2023/06/17 05:41:33;;;;;;;80.00;30.40;;;;;;;;;;5094680;28;20457;-64
2023/06/17 05:43:58;;;;;;;86.50;30.92;;;;;;;;;;5094828;28;20466;-64
2023/06/17 05:46:24;;;;;;;92.80;30.15;;;;;;;;;;5094857;28;20028;-64
2023/06/17 05:48:49;;;;;;;85.03;29.77;;;;;;;;;;5094634;28;20097;-64
2023/06/17 05:51:18;;;;;;;101.25;31.27;;;;;;;;;;5094582;28;20085;-64
2023/06/17 05:53:44;;;;;;;107.57;32.60;;;;;;;;;;5094495;28;20028;-64
2023/06/17 05:56:09;;;;;;;131.50;37.13;;;;;;;;;;5094466;28;20034;-64
2023/06/17 05:58:35;;;;;;;141.77;37.88;;;;;;;;;;5094509;28;20510;-64
2023/06/17 06:01:01;;;;;;;141.00;38.08;;;;;;;;;;5094541;28;20023;-64
2023/06/17 06:03:27;;;;;;;146.43;39.75;;;;;;;;;;5100812;28;20024;-64
2023/06/17 06:05:52;;;;;;;149.13;38.92;;;;;;;;;;5114687;28;20038;-64
2023/06/17 06:08:17;;;;;;;137.52;38.38;;;;;;;;;;5114553;28;20023;-64
2023/06/17 06:10:43;;;;;;;152.50;40.08;;;;;;;;;;5114456;28;20027;-64
2023/06/17 06:13:08;;;;;;;145.02;37.35;;;;;;;;;;5114595;28;20038;-64
2023/06/17 06:15:34;;;;;;;141.55;39.75;;;;;;;;;;5114572;28;20038;-64
2023/06/17 06:18:00;;;;;;;135.55;35.63;;;;;;;;;;5114412;28;20027;-64
2023/06/17 06:20:26;;;;;;;109.00;32.95;;;;;;;;;;5104742;28;20027;-64
2023/06/17 06:22:51;;;;;;;83.47;29.85;;;;;;;;;;5093987;28;20032;-64
2023/06/17 06:25:17;;;;;;;82.85;29.90;;;;;;;;;;5093724;28;20527;-64
2023/06/17 06:27:42;;;;;;;80.47;27.25;;;;;;;;;;5093978;28;20504;-64
2023/06/17 06:30:08;;;;;;;108.28;32.25;;;;;;;;;;5093705;28;20028;-64
2023/06/17 06:32:34;;;;;;;63.75;25.00;;;;;;;;;;5093691;28;20060;-64
2023/06/17 06:34:59;;;;;;;53.67;23.27;;;;;;;;;;5093899;28;20048;-64
2023/06/17 06:37:25;;;;;;;68.45;27.30;;;;;;;;;;5093681;28;20012;-64
2023/06/17 06:39:50;;;;;;;73.03;29.38;;;;;;;;;;5093517;28;20028;-64
2023/06/17 06:42:16;;;;;;;57.40;25.77;;;;;;;;;;5093529;28;20355;-64
2023/06/17 06:44:41;;;;;;;78.07;28.33;;;;;;;;;;5093540;28;20374;-64
2023/06/17 06:47:06;;;;;;;78.68;28.35;;;;;;;;;;5093622;28;20024;-64
2023/06/17 06:49:33;;;;;;;77.68;27.95;;;;;;;;;;5093273;28;20082;-64
2023/06/17 06:51:58;;;;;;;85.88;29.17;;;;;;;;;;5093440;28;20024;-64
2023/06/17 06:54:24;;;;;;;75.65;28.05;;;;;;;;;;5092506;28;20531;-64
2023/06/17 06:56:51;;;;;;;66.13;26.70;;;;;;;;;;5093397;28;20040;-64
2023/06/17 06:59:16;;;;;;;71.15;29.00;;;;;;;;;;5093373;28;20020;-64
2023/06/17 07:01:42;;;;;;;77.00;28.98;;;;;;;;;;5093346;28;20020;-64
2023/06/17 07:04:07;;;;;;;70.43;26.23;;;;;;;;;;5105392;28;20028;-63
2023/06/17 07:06:32;;;;;;;71.10;27.73;;;;;;;;;;5113456;28;20522;-63
2023/06/17 07:08:58;;;;;;;79.32;28.35;;;;;;;;;;5111936;28;20023;-64
2023/06/17 07:11:24;;;;;;;81.55;28.70;;;;;;;;;;5113353;28;20028;-63
2023/06/17 07:13:49;;;;;;;85.63;29.15;;;;;;;;;;5113228;28;20046;-64
2023/06/17 07:16:15;;;;;;;97.07;31.58;;;;;;;;;;5113166;28;20028;-63
2023/06/17 07:18:40;;;;;;;85.22;29.33;;;;;;;;;;5113244;28;20476;-64
2023/06/17 07:21:05;;;;;;;98.28;35.78;;;;;;;;;;5097849;28;20032;-64
2023/06/17 07:23:31;;;;;;;98.20;33.17;;;;;;;;;;5092711;28;20031;-63
2023/06/17 07:25:56;;;;;;;59.28;28.48;;;;;;;;;;5092922;28;20111;-63
2023/06/17 07:28:23;;;;;;;61.85;28.50;;;;;;;;;;5092878;28;20102;-65
2023/06/17 07:30:49;;;;;;;56.13;27.27;;;;;;;;;;5092764;28;20115;-64
2023/06/17 07:33:15;;;;;;;58.78;27.70;;;;;;;;;;5092783;28;20048;-64
2023/06/17 07:35:40;;;;;;;50.47;25.08;;;;;;;;;;5092786;28;20485;-64
2023/06/17 07:38:05;;;;;;;64.53;28.67;;;;;;;;;;5092471;28;20020;-64
2023/06/17 07:40:31;;;;;;;72.47;30.27;;;;;;;;;;5092659;28;20081;-64
2023/06/17 07:42:56;;;;;;;75.75;30.05;;;;;;;;;;5092575;28;20115;-64
2023/06/17 07:45:22;;;;;;;68.28;28.88;;;;;;;;;;5092530;28;20024;-64
2023/06/17 07:47:48;;;;;;;75.15;29.88;;;;;;;;;;5092333;28;20036;-64
2023/06/17 07:50:13;;;;;;;72.65;29.67;;;;;;;;;;5092669;28;20044;-64
2023/06/17 07:52:39;;;;;;;53.33;26.38;;;;;;;;;;5092394;28;20116;-64
2023/06/17 07:55:06;;;;;;;46.40;26.90;;;;;;;;;;5092503;28;20051;-65
2023/06/17 07:57:32;;;;;;;54.25;27.10;;;;;;;;;;5092689;28;20032;-65
2023/06/17 07:59:57;;;;;;;63.28;28.02;;;;;;;;;;5092588;28;20077;-64
2023/06/17 08:02:23;;;;;;;78.68;30.55;;;;;;;;;;5092523;28;20024;-64
2023/06/17 08:04:49;;;;;;;63.40;27.23;;;;;;;;;;5110033;28;20024;-64
2023/06/17 08:07:15;;;;;;;76.88;30.77;;;;;;;;;;5114274;28;20026;-64
2023/06/17 08:09:41;;;;;;;54.10;25.45;;;;;;;;;;5117003;28;20032;-64
2023/06/17 08:12:06;;;;;;;39.50;22.30;;;;;;;;;;5116997;28;20034;-64
2023/06/17 08:14:32;;;;;;;34.03;20.20;;;;;;;;;;5116940;28;20508;-64
2023/06/17 08:16:57;;;;;;;31.92;19.77;;;;;;;;;;5116992;28;20110;-66
2023/06/17 08:19:23;;;;;;;33.47;20.08;;;;;;;;;;5115914;28;20038;-64
2023/06/17 08:21:49;;;;;;;36.25;19.50;;;;;;;;;;5096118;28;20392;-65
2023/06/17 08:24:24;;;;;;;36.42;19.45;;;;;;;;;;5096249;28;20099;-63
2023/06/17 08:26:50;;;;;;;34.05;19.33;;;;;;;;;;5096098;28;20043;-64
2023/06/17 08:29:16;;;;;;;33.92;20.63;;;;;;;;;;5096031;28;20381;-64
2023/06/17 08:31:43;;;;;;;37.92;21.85;;;;;;;;;;5096163;28;20020;-64
2023/06/17 08:34:09;;;;;;;47.50;25.77;;;;;;;;;;5095913;28;20401;-64
2023/06/17 08:36:37;;;;;;;63.22;31.15;;;;;;;;;;5095837;28;20101;-64
2023/06/17 08:39:02;;;;;;;63.28;31.25;;;;;;;;;;5095936;28;20095;-64
2023/06/17 08:41:28;;;;;;;64.60;31.88;;;;;;;;;;5095850;28;20070;-64
2023/06/17 08:44:00;;;;;;;66.53;33.75;;;;;;;;;;5095710;28;20032;-65
2023/06/17 08:46:26;;;;;;;68.03;35.55;;;;;;;;;;5095918;28;20052;-65
2023/06/17 08:48:52;;;;;;;96.32;42.50;;;;;;;;;;5095695;28;20077;-64
2023/06/17 08:51:19;;;;;;;75.45;40.35;;;;;;;;;;5095509;28;20476;-64
2023/06/17 08:53:47;;;;;;;75.25;38.55;;;;;;;;;;5095550;28;20133;-65
2023/06/17 08:56:13;;;;;;;72.07;40.35;;;;;;;;;;5095728;28;20445;-64
2023/06/17 08:58:38;;;;;;;73.93;39.97;;;;;;;;;;5095567;28;20028;-64
2023/06/17 09:01:07;;;;;;;64.15;37.22;;;;;;;;;;5095562;28;20060;-64
2023/06/17 09:03:37;;;;;;;52.95;34.08;;;;;;;;;;5102522;28;20493;-64
2023/06/17 09:06:13;;;;;;;63.72;38.15;;;;;;;;;;5115604;28;20059;-64
2023/06/17 09:08:39;;;;;;;54.60;30.23;;;;;;;;;;5115919;28;20426;-64
2023/06/17 09:11:05;;;;;;;59.22;34.05;;;;;;;;;;5115693;28;20027;-66
2023/06/17 09:13:31;;;;;;;58.63;33.22;;;;;;;;;;5115858;28;20062;-64
2023/06/17 09:15:56;;;;;;;54.28;37.70;;;;;;;;;;5115631;28;20423;-64
2023/06/17 09:18:21;;;;;;;54.15;37.42;;;;;;;;;;5115204;28;20069;-64
2023/06/17 09:20:56;;;;;;;51.10;36.60;;;;;;;;;;5102803;28;20036;-64
2023/06/17 09:23:23;;;;;;;42.45;25.92;;;;;;;;;;5095175;28;20342;-64
2023/06/17 09:25:59;;;;;;;34.08;22.65;;;;;;;;;;5095043;28;20020;-64
2023/06/17 09:28:25;;;;;;;35.67;23.27;;;;;;;;;;5095020;28;20023;-64
2023/06/17 09:30:53;;;;;;;24.13;19.08;;;;;;;;;;5094980;28;20039;-64
2023/06/17 09:33:20;;;;;;;19.30;16.38;;;;;;;;;;5095011;28;20039;-64
2023/06/17 09:35:47;;;;;;;35.55;27.55;;;;;;;;;;5093655;28;20025;-64
2023/06/17 09:38:17;;;;;;;20.20;16.90;;;;;;;;;;5094933;28;20046;-66
2023/06/17 09:40:42;;;;;;;19.73;16.23;;;;;;;;;;5094921;28;20512;-65
2023/06/17 09:43:11;;;;;;;20.48;15.65;;;;;;;;;;5094766;28;20102;-64
2023/06/17 09:45:39;;;;;;;23.30;16.98;;;;;;;;;;5094739;28;20024;-65
2023/06/17 09:48:05;;;;;;;20.30;16.42;;;;;;;;;;5094347;28;20036;-63
2023/06/17 09:50:32;;;;;;;21.55;15.68;;;;;;;;;;5094532;28;20119;-63
2023/06/17 09:52:59;;;;;;;15.65;13.93;;;;;;;;;;5094291;28;20489;-63
2023/06/17 09:55:26;;;;;;;16.42;14.48;;;;;;;;;;5094475;28;20046;-63
2023/06/17 09:57:55;;;;;;;18.08;14.32;;;;;;;;;;5094467;28;20024;-65
2023/06/17 10:00:24;;;;;;;14.88;13.00;;;;;;;;;;5094541;28;20024;-63
2023/06/17 10:02:51;;;;;;;17.38;12.82;;;;;;;;;;5095157;28;20032;-63
2023/06/17 10:05:17;;;;;;;14.23;12.73;;;;;;;;;;5114526;28;20027;-63
2023/06/17 10:07:44;;;;;;;14.20;11.50;;;;;;;;;;5114531;28;20024;-64
2023/06/17 10:10:12;;;;;;;13.50;10.13;;;;;;;;;;5114642;28;20024;-64
2023/06/17 10:12:39;;;;;;;11.25;9.38;;;;;;;;;;5114595;28;20101;-64
2023/06/17 10:15:06;;;;;;;13.00;11.25;;;;;;;;;;5114733;28;20461;-64
2023/06/17 10:17:35;;;;;;;10.88;9.68;;;;;;;;;;5114378;28;20418;-63
2023/06/17 10:20:05;;;;;;;12.18;10.88;;;;;;;;;;5108217;28;20016;-64
2023/06/17 10:22:34;;;;;;;11.48;10.38;;;;;;;;;;5093810;28;20031;-64
2023/06/17 10:24:59;;;;;;;14.32;11.02;;;;;;;;;;5094023;28;20515;-64
2023/06/17 10:27:25;;;;;;;7.60;6.80;;;;;;;;;;5094118;28;20032;-64
2023/06/17 10:29:50;;;;;;;13.85;10.00;;;;;;;;;;5093105;28;20407;-65
2023/06/17 10:32:24;;;;;;;14.40;9.60;;;;;;;;;;5092384;28;20377;-64
2023/06/17 10:35:12;;;;;;;10.52;9.52;;;;;;;;;;5093880;28;20030;-64
2023/06/17 10:37:47;;;;;;;12.68;9.80;;;;;;;;;;5087997;28;20076;-64
2023/06/17 10:40:26;;;;;;;14.48;10.05;;;;;;;;;;5093776;28;20028;-64
2023/06/17 10:42:58;;;;;;;10.70;7.80;;;;;;;;;;5093614;28;20100;-64
2023/06/17 10:45:25;;;;;;;9.88;8.70;;;;;;;;;;5093394;28;20039;-64
2023/06/17 10:47:50;;;;;;;9.95;8.95;;;;;;;;;;5092846;28;20052;-64
2023/06/17 10:50:21;;;;;;;12.85;9.45;;;;;;;;;;5093271;28;20089;-64
2023/06/17 10:52:46;;;;;;;12.75;8.52;;;;;;;;;;5093396;28;20024;-64
2023/06/17 10:55:13;;;;;;;10.38;8.57;;;;;;;;;;5093320;28;20546;-64
2023/06/17 10:57:38;;;;;;;10.65;8.60;;;;;;;;;;5093388;28;20454;-65
2023/06/17 11:00:12;;;;;;;14.90;9.35;;;;;;;;;;5093310;28;20028;-64
2023/06/17 11:02:40;;;;;;;17.23;12.52;;;;;;;;;;5093016;28;20021;-65
2023/06/17 11:05:07;;;;;;;12.45;10.50;;;;;;;;;;5113275;28;20027;-64
2023/06/17 11:07:33;;;;;;;13.32;9.57;;;;;;;;;;5113404;28;20031;-65
2023/06/17 11:09:59;;;;;;;11.68;9.48;;;;;;;;;;5113216;28;20384;-64
2023/06/17 11:12:24;;;;;;;13.57;9.70;;;;;;;;;;5113414;28;20042;-65
2023/06/17 11:14:50;;;;;;;18.05;13.15;;;;;;;;;;5113262;28;20103;-64
2023/06/17 11:17:15;;;;;;;11.82;9.90;;;;;;;;;;5111955;28;20032;-65
2023/06/17 11:19:41;;;;;;;10.27;8.55;;;;;;;;;;5109924;28;20034;-65
2023/06/17 11:22:07;;;;;;;10.45;8.57;;;;;;;;;;5092975;28;20020;-65
2023/06/17 11:24:34;;;;;;;12.80;8.85;;;;;;;;;;5093058;28;20032;-65
2023/06/17 11:27:00;;;;;;;11.60;8.80;;;;;;;;;;5091469;28;20111;-65
2023/06/17 11:29:27;;;;;;;13.57;9.20;;;;;;;;;;5092582;28;20080;-65
2023/06/17 11:32:00;;;;;;;12.52;8.63;;;;;;;;;;5092796;28;20061;-65
2023/06/17 11:34:31;;;;;;;13.20;8.95;;;;;;;;;;5091498;28;20032;-65
2023/06/17 11:36:57;;;;;;;12.63;8.40;;;;;;;;;;5092605;28;20016;-64
2023/06/17 11:39:24;;;;;;;13.35;8.20;;;;;;;;;;5092655;28;20473;-65
2023/06/17 11:41:51;;;;;;;15.10;9.02;;;;;;;;;;5091305;28;20024;-64
2023/06/17 11:44:20;;;;;;;14.00;8.98;;;;;;;;;;5092428;28;20436;-64
2023/06/17 11:46:49;;;;;;;11.00;7.93;;;;;;;;;;5092611;28;20024;-64
2023/06/17 11:49:14;;;;;;;9.57;7.63;;;;;;;;;;5092368;28;20071;-64
2023/06/17 11:51:47;;;;;;;11.27;6.45;;;;;;;;;;5092545;28;20453;-65
2023/06/17 11:54:12;;;;;;;14.38;7.35;;;;;;;;;;5092749;28;20089;-65
2023/06/17 11:56:38;;;;;;;9.30;6.35;;;;;;;;;;5092547;28;20024;-65
2023/06/17 11:59:03;;;;;;;8.50;6.18;;;;;;;;;;5092428;28;20024;-65
2023/06/17 12:01:29;;;;;;;11.50;6.82;;;;;;;;;;5092634;28;20059;-65
2023/06/17 12:03:56;;;;;;;7.75;6.95;;;;;;;;;;5102599;28;20031;-65
2023/06/17 12:06:21;;;;;;;12.65;7.07;;;;;;;;;;5112825;28;20024;-65
2023/06/17 12:09:00;;;;;;;10.32;7.10;;;;;;;;;;5113005;28;20015;-65
2023/06/17 12:11:27;;;;;;;9.20;7.90;;;;;;;;;;5112880;28;20073;-65
2023/06/17 12:13:57;;;;;;;10.93;8.57;;;;;;;;;;5112431;28;20060;-65
2023/06/17 12:16:23;;;;;;;10.55;8.90;;;;;;;;;;5112708;28;20032;-65
2023/06/17 12:18:50;;;;;;;8.90;8.00;;;;;;;;;;5112767;28;20106;-65
2023/06/17 12:21:18;;;;;;;10.07;7.38;;;;;;;;;;5096088;28;20105;-65
2023/06/17 12:23:44;;;;;;;10.90;9.13;;;;;;;;;;5092206;28;20020;-65
2023/06/17 12:26:10;;;;;;;10.02;8.15;;;;;;;;;;5092259;28;20081;-65
2023/06/17 12:28:36;;;;;;;9.60;8.60;;;;;;;;;;5091987;28;20032;-65
2023/06/17 12:31:02;;;;;;;8.98;7.40;;;;;;;;;;5091985;28;20435;-65
2023/06/17 12:33:27;;;;;;;8.68;7.55;;;;;;;;;;5092247;28;20108;-65
2023/06/17 12:35:53;;;;;;;9.45;7.60;;;;;;;;;;5092307;28;20388;-65
2023/06/17 12:38:18;;;;;;;9.32;7.22;;;;;;;;;;5092043;28;20024;-65
2023/06/17 12:40:44;;;;;;;8.85;7.53;;;;;;;;;;5092109;28;20031;-65
2023/06/17 12:43:10;;;;;;;8.13;7.32;;;;;;;;;;5091848;28;20024;-65
2023/06/17 12:45:35;;;;;;;8.57;7.38;;;;;;;;;;5092179;28;20031;-65
2023/06/17 12:48:03;;;;;;;11.70;7.20;;;;;;;;;;5091911;28;20437;-65
2023/06/17 12:50:28;;;;;;;8.63;6.50;;;;;;;;;;5091946;28;20035;-65
2023/06/17 12:52:55;;;;;;;10.35;7.13;;;;;;;;;;5092819;28;20020;-65
2023/06/17 12:55:20;;;;;;;8.27;7.20;;;;;;;;;;5095465;28;20028;-65
2023/06/17 12:57:46;;;;;;;12.60;6.60;;;;;;;;;;5095449;28;20064;-65
2023/06/17 13:00:12;;;;;;;7.78;6.65;;;;;;;;;;5095800;28;20036;-65
2023/06/17 13:02:37;;;;;;;7.75;6.72;;;;;;;;;;5095584;28;20032;-65
2023/06/17 13:05:03;;;;;;;8.73;6.28;;;;;;;;;;5115388;28;20031;-65
2023/06/17 13:07:29;;;;;;;9.82;6.80;;;;;;;;;;5115854;28;20042;-65
2023/06/17 13:09:57;;;;;;;9.88;6.20;;;;;;;;;;5115725;28;20027;-65
2023/06/17 13:12:22;;;;;;;6.95;5.68;;;;;;;;;;5114169;28;20077;-65
2023/06/17 13:14:49;;;;;;;6.00;5.13;;;;;;;;;;5115907;28;20020;-65
2023/06/17 13:17:15;;;;;;;6.55;5.88;;;;;;;;;;5115479;28;20054;-65
2023/06/17 13:19:42;;;;;;;7.13;5.78;;;;;;;;;;5112195;28;20028;-65
2023/06/17 13:22:07;;;;;;;6.50;5.85;;;;;;;;;;5095064;28;20021;-65
2023/06/17 13:24:33;;;;;;;11.73;6.22;;;;;;;;;;5094908;28;20028;-65
2023/06/17 13:26:59;;;;;;;8.20;6.78;;;;;;;;;;5094791;28;20035;-65
2023/06/17 13:29:24;;;;;;;7.38;6.20;;;;;;;;;;5094915;28;20016;-65
2023/06/17 13:31:50;;;;;;;7.80;6.03;;;;;;;;;;5094730;28;20377;-65
2023/06/17 13:34:17;;;;;;;6.38;5.65;;;;;;;;;;5094857;28;20330;-65
2023/06/17 13:36:45;;;;;;;11.18;7.10;;;;;;;;;;5094661;28;20503;-65
2023/06/17 13:39:10;;;;;;;8.43;6.38;;;;;;;;;;5094730;28;20051;-64
2023/06/17 13:41:36;;;;;;;8.13;6.28;;;;;;;;;;5094448;28;20133;-65
2023/06/17 13:44:02;;;;;;;7.85;7.05;;;;;;;;;;5094583;28;20020;-65
2023/06/17 13:46:27;;;;;;;7.43;6.38;;;;;;;;;;5094690;28;20026;-65
2023/06/17 13:48:53;;;;;;;7.95;5.22;;;;;;;;;;5094356;28;20063;-65
2023/06/17 13:51:18;;;;;;;6.22;5.63;;;;;;;;;;5094558;28;20373;-65
2023/06/17 13:53:44;;;;;;;6.50;5.65;;;;;;;;;;5094383;28;20035;-65
2023/06/17 13:56:10;;;;;;;8.07;6.05;;;;;;;;;;5094300;28;20048;-63
2023/06/17 13:58:36;;;;;;;11.88;6.18;;;;;;;;;;5094603;28;20024;-65
2023/06/17 14:01:01;;;;;;;9.00;5.95;;;;;;;;;;5094390;28;20051;-65
2023/06/17 14:03:27;;;;;;;7.35;5.43;;;;;;;;;;5100253;28;20019;-65
2023/06/17 14:05:53;;;;;;;6.57;5.63;;;;;;;;;;5113764;28;20047;-65
2023/06/17 14:08:18;;;;;;;8.98;6.13;;;;;;;;;;5114836;28;20034;-65
2023/06/17 14:10:44;;;;;;;8.70;5.75;;;;;;;;;;5114507;28;20590;-65
2023/06/17 14:13:09;;;;;;;6.18;5.50;;;;;;;;;;5114576;27;20038;-65
2023/06/17 14:15:35;;;;;;;10.77;6.20;;;;;;;;;;5114628;28;20097;-65
2023/06/17 14:18:01;;;;;;;7.13;4.95;;;;;;;;;;5114467;28;20020;-65